Time;durP1;ratioP1;P1;durP2;ratioP2;P2;SDS_P1;SDS_P2;PMS_P1;PMS_P2;Temp;Humidity;BMP_temperature;BMP_pressure;BME280_temperature;BME280_humidity;BME280_pressure;Samples;Min_cycle;Max_cycle;Signal;HPM_P1;HPM_P2
2021/08/19 00:00:52;;;;;;;0.10;0.10;;;16.90;73.90;;;20.15;59.35;101213.22;3188229;38;129815;-73
2021/08/19 00:03:58;;;;;;;2.40;0.88;;;16.90;73.90;;;20.23;59.25;101219.63;3186076;38;130911;-73
2021/08/19 00:07:04;;;;;;;0.15;0.15;;;16.90;74.00;;;20.26;59.11;101213.47;3188105;30;130326;-73
2021/08/19 00:10:12;;;;;;;1.55;1.02;;;16.90;74.00;;;20.27;58.92;101206.88;3188343;38;130904;-73
2021/08/19 00:13:20;;;;;;;1.42;0.55;;;16.90;73.90;;;20.13;59.60;101209.28;3189890;30;130737;-73
2021/08/19 00:16:26;;;;;;;0.38;0.38;;;16.90;74.00;;;20.14;59.55;101208.16;3189031;38;130721;-73
2021/08/19 00:19:33;;;;;;;4.57;0.73;;;17.00;74.10;;;20.20;59.28;101209.44;3190917;30;130732;-73
2021/08/19 00:22:39;;;;;;;0.50;0.50;;;16.90;73.90;;;20.24;59.15;101210.31;3188283;38;130487;-73
2021/08/19 00:25:44;;;;;;;1.45;1.35;;;16.90;74.50;;;20.25;58.99;101203.72;3189292;38;130718;-74
2021/08/19 00:28:53;;;;;;;0.38;0.38;;;16.90;74.00;;;20.12;59.68;101213.16;3189147;30;129909;-73
2021/08/19 00:31:59;;;;;;;0.15;0.15;;;16.90;73.90;;;20.05;59.70;101210.25;3187741;38;130428;-73
2021/08/19 00:35:09;;;;;;;1.58;0.93;;;16.90;73.90;;;20.00;59.86;101213.22;3190745;30;130332;-73
2021/08/19 00:38:15;;;;;;;0.10;0.10;;;16.90;74.00;;;19.92;60.03;101214.19;3190108;38;130852;-73
2021/08/19 00:41:21;;;;;;;0.00;0.00;;;16.90;74.00;;;19.88;60.16;101213.31;3189730;38;129828;-73
2021/08/19 00:44:29;;;;;;;0.52;0.43;;;16.80;74.00;;;19.76;60.25;101206.03;3190327;38;130633;-73
2021/08/19 00:47:38;;;;;;;2.20;0.95;;;16.80;73.90;;;19.63;60.39;101206.47;3190457;30;130784;-73
2021/08/19 00:50:45;;;;;;;1.45;0.40;;;16.70;73.90;;;19.60;60.20;101205.22;3189358;38;129677;-72
2021/08/19 00:53:51;;;;;;;0.20;0.10;;;16.60;73.80;;;19.48;60.71;101212.66;3188604;30;130232;-73
2021/08/19 00:57:00;;;;;;;2.15;0.85;;;16.60;74.00;;;19.35;60.83;101211.16;3188544;38;129777;-73
2021/08/19 01:00:15;;;;;;;0.68;0.60;;;16.50;74.10;;;19.29;60.69;101215.28;3189795;38;130769;-73
2021/08/19 01:03:21;;;;;;;1.30;1.20;;;16.40;74.10;;;19.21;60.95;101208.06;3187579;38;130647;-73
2021/08/19 01:06:27;;;;;;;0.98;0.90;;;16.40;74.20;;;19.20;60.94;101204.56;3189744;38;130149;-73
2021/08/19 01:09:33;;;;;;;0.85;0.85;;;16.30;74.30;;;19.10;61.00;101199.63;3191564;30;130716;-73
2021/08/19 01:12:39;;;;;;;0.65;0.50;;;16.20;74.30;;;19.06;61.02;101206.06;3190502;30;130764;-72
2021/08/19 01:15:48;;;;;;;0.32;0.32;;;16.10;74.40;;;18.92;61.15;101203.75;3193261;30;130953;-73
2021/08/19 01:18:54;;;;;;;1.17;1.15;;;16.10;74.50;;;18.82;61.45;101198.03;3188066;38;130384;-72
2021/08/19 01:22:00;;;;;;;0.75;0.75;;;16.00;74.50;;;18.87;60.97;101210.56;3190346;30;130161;-72
2021/08/19 01:25:11;;;;;;;1.35;0.75;;;16.00;74.60;;;18.79;60.94;101206.09;3190247;30;131322;-73
2021/08/19 01:28:20;;;;;;;3.08;1.50;;;15.90;74.60;;;18.76;61.25;101202.13;3189351;38;131428;-72
2021/08/19 01:31:29;;;;;;;0.85;0.68;;;15.90;74.60;;;18.71;61.32;101207.78;3189645;30;129838;-72
2021/08/19 01:34:35;;;;;;;1.13;0.82;;;15.80;74.70;;;18.69;61.10;101207.34;3188764;38;129910;-72
2021/08/19 01:37:41;;;;;;;1.80;1.65;;;15.70;74.70;;;18.65;61.13;101202.94;3187106;38;130717;-73
2021/08/19 01:40:47;;;;;;;2.80;0.77;;;15.70;74.70;;;18.65;61.18;101211.09;3189840;30;129902;-73
2021/08/19 01:43:56;;;;;;;2.42;1.25;;;15.70;74.90;;;18.68;60.85;101204.97;3190195;38;130787;-72
2021/08/19 01:47:06;;;;;;;0.63;0.63;;;15.70;74.80;;;18.68;60.94;101204.97;3188213;38;130098;-73
2021/08/19 01:50:13;;;;;;;1.45;1.27;;;15.70;75.50;;;18.65;60.75;101213.81;3189578;38;129686;-73
2021/08/19 01:53:20;;;;;;;2.83;0.82;;;15.60;74.80;;;18.70;60.66;101208.94;3190344;30;130750;-73
2021/08/19 01:56:26;;;;;;;2.78;1.48;;;15.60;74.90;;;18.71;60.68;101202.38;3188120;38;129675;-73
2021/08/19 01:59:35;;;;;;;1.58;1.00;;;15.60;74.90;;;18.76;60.54;101207.56;3189230;38;129725;-73
2021/08/19 02:02:42;;;;;;;1.55;0.63;;;15.70;75.00;;;18.87;60.33;101202.44;3189681;38;133096;-73
2021/08/19 02:05:49;;;;;;;1.27;1.17;;;15.70;74.90;;;18.91;60.24;101201.38;3190234;38;130195;-73
2021/08/19 02:08:54;;;;;;;0.40;0.40;;;15.70;74.90;;;18.96;60.39;101198.44;3189745;38;130198;-73
2021/08/19 02:12:00;;;;;;;0.20;0.20;;;15.70;74.90;;;19.04;59.98;101205.63;3188430;38;129969;-73
2021/08/19 02:15:13;;;;;;;1.77;1.23;;;15.80;74.80;;;19.07;60.16;101194.88;3189291;38;130680;-73
2021/08/19 02:18:19;;;;;;;3.08;1.25;;;15.80;74.80;;;19.13;59.75;101198.13;3188186;38;131186;-73
2021/08/19 02:21:25;;;;;;;0.90;0.90;;;15.80;74.70;;;19.16;59.81;101195.53;3189075;38;131172;-73
2021/08/19 02:24:31;;;;;;;1.70;1.50;;;15.90;74.70;;;19.20;60.03;101192.91;3188016;38;130780;-73
2021/08/19 02:27:37;;;;;;;0.30;0.30;;;15.90;74.70;;;19.25;59.89;101193.44;3188627;38;131139;-73
2021/08/19 02:30:46;;;;;;;1.73;0.90;;;16.00;74.70;;;19.28;59.84;101186.53;3187434;38;131229;-73
2021/08/19 02:33:51;;;;;;;1.95;0.70;;;16.00;74.60;;;19.28;59.83;101191.97;3188223;38;130186;-73
2021/08/19 02:36:57;;;;;;;0.65;0.65;;;16.00;74.60;;;19.31;59.65;101194.00;3186985;38;130271;-73
2021/08/19 02:40:08;;;;;;;0.20;0.13;;;16.00;74.60;;;19.33;59.55;101189.00;3189226;38;131242;-73
2021/08/19 02:43:14;;;;;;;0.35;0.35;;;16.00;74.60;;;19.35;59.75;101184.00;3189032;30;130575;-73
2021/08/19 02:46:22;;;;;;;1.60;0.63;;;16.00;74.50;;;19.38;59.73;101178.66;3188973;30;131104;-73
2021/08/19 02:49:28;;;;;;;0.13;0.13;;;16.10;74.60;;;19.34;59.89;101185.13;3189340;38;130632;-73
2021/08/19 02:52:34;;;;;;;3.20;1.13;;;16.10;74.60;;;19.30;60.05;101179.59;3188413;38;129827;-72
2021/08/19 02:55:40;;;;;;;0.98;0.98;;;16.10;74.50;;;19.34;59.78;101182.41;3187949;30;130807;-73
2021/08/19 02:58:45;;;;;;;1.85;0.68;;;16.10;74.60;;;19.31;60.10;101169.53;3189553;30;129576;-73
2021/08/19 03:01:54;;;;;;;1.27;0.57;;;16.10;74.50;;;19.37;59.83;101168.13;3188413;38;129821;-73
2021/08/19 03:05:00;;;;;;;0.90;0.90;;;16.10;74.60;;;19.38;59.88;101167.78;3188580;38;130829;-73
2021/08/19 03:08:10;;;;;;;2.92;0.93;;;16.10;74.60;;;19.45;59.79;101173.41;3189386;38;129672;-73
2021/08/19 03:11:15;;;;;;;0.38;0.32;;;16.10;74.60;;;19.34;60.12;101183.19;3187348;38;131207;-73
2021/08/19 03:14:22;;;;;;;1.25;0.57;;;16.10;74.60;;;19.45;59.83;101180.75;3189850;30;129749;-73
2021/08/19 03:17:30;;;;;;;0.77;0.77;;;16.10;74.60;;;19.46;59.84;101182.34;3189797;30;129673;-73
2021/08/19 03:20:36;;;;;;;1.80;1.38;;;16.20;74.60;;;19.51;59.71;101182.06;3187176;38;131910;-73
2021/08/19 03:23:42;;;;;;;0.93;0.68;;;16.20;74.70;;;19.45;59.70;101178.84;3188390;30;129634;-73
2021/08/19 03:26:48;;;;;;;0.00;0.00;;;16.20;74.60;;;19.44;59.84;101184.59;3189063;38;131452;-73
2021/08/19 03:29:54;;;;;;;0.22;0.22;;;16.20;74.60;;;19.49;59.81;101176.19;3188326;38;130628;-73
2021/08/19 03:33:07;;;;;;;0.05;0.05;;;16.20;74.60;;;19.47;59.81;101178.47;3189130;38;130731;-73
2021/08/19 03:36:13;;;;;;;1.67;0.77;;;16.20;74.60;;;19.53;59.70;101179.81;3189565;30;129773;-73
2021/08/19 03:39:20;;;;;;;0.32;0.32;;;16.20;74.60;;;19.55;59.84;101178.31;3189353;38;131121;-73
2021/08/19 03:42:26;;;;;;;0.88;0.75;;;16.20;74.60;;;19.51;59.78;101176.63;3190573;38;130667;-73
2021/08/19 03:45:34;;;;;;;0.52;0.52;;;16.20;74.60;;;19.53;59.72;101171.66;3187325;30;131497;-73
2021/08/19 03:48:44;;;;;;;0.73;0.50;;;16.30;74.70;;;19.56;59.54;101168.25;3188950;38;129974;-73
2021/08/19 03:51:50;;;;;;;4.35;2.40;;;16.30;74.70;;;19.58;59.81;101169.44;3188703;30;130720;-73
2021/08/19 03:54:57;;;;;;;0.40;0.40;;;16.30;74.70;;;19.62;59.56;101166.84;3190149;30;133400;-73
2021/08/19 03:58:03;;;;;;;0.60;0.60;;;16.30;74.70;;;19.58;59.86;101172.16;3187651;30;130217;-73
2021/08/19 04:01:08;;;;;;;0.00;0.00;;;16.30;74.60;;;19.54;59.93;101159.66;3190196;30;129901;-73
2021/08/19 04:04:18;;;;;;;0.85;0.82;;;16.30;74.70;;;19.58;59.87;101164.00;3189583;38;131724;-73
2021/08/19 04:07:23;;;;;;;0.00;0.00;;;16.30;74.70;;;19.56;59.82;101171.72;3190782;30;130709;-73
2021/08/19 04:10:29;;;;;;;13.90;1.65;;;16.30;74.70;;;19.58;59.89;101165.97;3188732;38;130195;-73
2021/08/19 04:13:35;;;;;;;3.33;1.42;;;16.30;74.70;;;19.48;59.99;101169.19;3187230;38;130610;-73
2021/08/19 04:16:41;;;;;;;1.75;1.65;;;16.30;74.70;;;19.53;60.06;101160.78;3187639;38;130744;-73
2021/08/19 04:19:49;;;;;;;1.05;0.55;;;16.30;74.70;;;19.51;60.12;101168.47;3189598;38;130774;-73
2021/08/19 04:22:55;;;;;;;2.83;1.55;;;16.30;74.70;;;19.54;60.12;101170.53;3189501;38;129873;-73
2021/08/19 04:26:01;;;;;;;0.50;0.50;;;16.30;74.80;;;19.54;60.19;101162.38;3190904;30;130434;-73
2021/08/19 04:29:09;;;;;;;3.40;1.95;;;16.30;74.70;;;19.55;60.24;101158.50;3190202;30;130879;-73
2021/08/19 04:32:15;;;;;;;0.77;0.60;;;16.30;74.70;;;19.57;59.88;101158.94;3188689;38;130603;-73
2021/08/19 04:35:28;;;;;;;1.42;1.08;;;16.30;74.70;;;19.62;59.75;101164.09;3189262;38;130189;-73
2021/08/19 04:38:34;;;;;;;5.03;1.35;;;16.30;74.70;;;19.58;59.80;101172.16;3193280;30;129815;-73
2021/08/19 04:41:42;;;;;;;2.35;1.35;;;16.30;74.80;;;19.59;59.86;101176.47;3194782;30;130481;-73
2021/08/19 04:44:47;;;;;;;0.63;0.57;;;16.30;74.80;;;19.57;60.13;101167.09;3190696;38;132185;-73
2021/08/19 04:47:53;;;;;;;0.95;0.85;;;16.30;74.80;;;19.63;59.72;101171.91;3188797;38;130697;-73
2021/08/19 04:51:01;;;;;;;0.35;0.35;;;16.30;74.80;;;19.68;59.88;101170.84;3187527;38;130238;-73
2021/08/19 04:54:10;;;;;;;1.00;0.90;;;16.30;74.80;;;19.71;59.48;101173.66;3189295;38;130388;-73
2021/08/19 04:57:19;;;;;;;1.55;1.10;;;16.40;74.80;;;19.85;59.51;101171.28;3189409;38;129980;-74
2021/08/19 05:00:25;;;;;;;1.95;1.38;;;16.40;74.80;;;19.87;59.47;101170.94;3190307;30;129836;-73
2021/08/19 05:03:31;;;;;;;0.98;0.68;;;16.40;74.80;;;19.86;59.42;101170.13;3189900;38;131567;-73
2021/08/19 05:06:40;;;;;;;1.45;1.35;;;16.40;74.70;;;19.88;59.34;101162.41;3189050;38;129859;-73
2021/08/19 05:09:46;;;;;;;2.50;2.20;;;16.50;74.80;;;19.94;59.49;101158.28;3188819;38;130178;-73
2021/08/19 05:12:52;;;;;;;2.15;1.50;;;16.50;74.70;;;19.99;59.41;101165.38;3189466;38;132818;-73
2021/08/19 05:15:58;;;;;;;1.10;1.02;;;16.50;74.70;;;20.07;59.35;101167.16;3189223;38;129951;-73
2021/08/19 05:19:06;;;;;;;0.35;0.35;;;16.60;74.70;;;20.18;59.07;101165.47;3190314;38;129691;-73
2021/08/19 05:22:15;;;;;;;0.65;0.65;;;16.60;74.60;;;20.22;59.00;101171.78;3189500;38;130972;-74
2021/08/19 05:25:21;;;;;;;0.80;0.75;;;16.70;74.60;;;20.23;59.13;101168.69;3190045;30;129852;-73
2021/08/19 05:28:27;;;;;;;2.17;2.00;;;16.70;74.50;;;20.35;58.98;101171.31;3191159;30;130025;-73
2021/08/19 05:31:33;;;;;;;3.00;2.40;;;16.80;74.60;;;20.39;58.98;101174.88;3191997;38;130778;-73
2021/08/19 05:34:39;;;;;;;6.10;2.25;;;16.80;74.50;;;20.46;58.78;101166.88;3189743;30;129754;-74
2021/08/19 05:37:47;;;;;;;1.90;1.58;;;16.90;74.50;;;20.53;58.49;101164.28;3189183;38;130759;-74
2021/08/19 05:40:53;;;;;;;26.88;0.80;;;17.00;74.40;;;20.59;58.49;101171.06;3190212;38;129685;-74
2021/08/19 05:43:59;;;;;;;10.52;0.88;;;17.00;74.40;;;20.59;58.63;101173.78;3190026;30;130518;-74
2021/08/19 05:47:10;;;;;;;1.23;0.93;;;17.10;74.40;;;20.67;58.62;101176.25;3189006;38;130119;-74
2021/08/19 05:50:16;;;;;;;1.50;0.40;;;17.10;75.00;;;20.77;58.67;101177.63;3189741;30;129838;-74
2021/08/19 05:53:24;;;;;;;0.63;0.50;;;17.20;74.30;;;20.88;58.46;101175.97;3188463;38;130919;-73
2021/08/19 05:56:30;;;;;;;0.45;0.45;;;17.30;74.30;;;21.04;58.09;101179.38;3187622;30;132336;-74
2021/08/19 05:59:36;;;;;;;1.55;1.02;;;17.30;74.20;;;21.05;58.01;101184.47;3190431;30;129859;-74
2021/08/19 06:02:42;;;;;;;0.20;0.20;;;17.40;74.10;;;21.12;58.41;101190.03;3188817;30;130744;-74
2021/08/19 06:05:49;;;;;;;2.08;0.82;;;17.50;74.10;;;21.18;58.21;101185.88;3189687;38;129670;-74
2021/08/19 06:08:57;;;;;;;1.73;1.10;;;17.60;74.10;;;21.19;58.24;101195.63;3188447;38;130739;-74
2021/08/19 06:12:06;;;;;;;1.48;1.38;;;17.60;74.40;;;21.20;58.32;101189.03;3189044;38;129726;-74
2021/08/19 06:15:13;;;;;;;2.88;1.65;;;17.60;74.10;;;21.22;58.34;101192.16;3188639;30;130832;-74
2021/08/19 06:18:18;;;;;;;2.58;2.38;;;17.70;74.10;;;21.24;58.46;101198.06;3189221;30;130314;-74
2021/08/19 06:21:24;;;;;;;0.63;0.63;;;17.70;74.10;;;21.26;58.16;101198.47;3189001;38;130797;-75
2021/08/19 06:24:33;;;;;;;2.80;1.58;;;17.70;74.20;;;21.29;58.60;101205.94;3188111;38;130641;-74
2021/08/19 06:27:39;;;;;;;1.88;1.02;;;17.70;74.20;;;21.40;58.23;101201.47;3188395;30;129923;-74
2021/08/19 06:30:44;;;;;;;1.80;1.65;;;17.80;74.20;;;21.58;57.94;101199.81;3190652;38;130700;-74
2021/08/19 06:33:50;;;;;;;12.55;1.83;;;17.90;74.20;;;21.75;57.52;101204.03;3190008;30;130176;-74
2021/08/19 06:36:56;;;;;;;1.20;1.10;;;18.00;74.00;;;21.64;58.06;101198.44;3189223;38;130979;-74
2021/08/19 06:40:08;;;;;;;2.08;0.73;;;18.00;74.00;;;21.63;57.95;101191.41;3188814;38;129840;-75
2021/08/19 06:43:13;;;;;;;1.80;1.35;;;18.00;74.00;;;21.73;57.86;101196.22;3188973;38;130844;-74
2021/08/19 06:46:20;;;;;;;0.47;0.35;;;18.10;74.10;;;21.80;57.99;101198.31;3187951;38;129868;-75
2021/08/19 06:49:25;;;;;;;0.82;0.73;;;18.20;74.00;;;22.04;57.25;101198.69;3189060;30;129775;-75
2021/08/19 06:52:32;;;;;;;4.88;1.80;;;18.30;73.90;;;22.20;57.10;101187.59;3189284;38;131534;-74
2021/08/19 06:55:41;;;;;;;3.53;1.52;;;18.40;73.70;;;22.34;57.08;101194.06;3187778;30;130283;-74
2021/08/19 06:58:47;;;;;;;0.43;0.43;;;18.50;73.70;;;22.47;56.91;101195.44;3188855;38;129817;-74
2021/08/19 07:01:53;;;;;;;8.02;1.65;;;18.60;73.50;;;22.51;56.91;101193.53;3189393;38;130111;-75
2021/08/19 07:04:59;;;;;;;4.53;2.60;;;18.70;73.50;;;22.52;57.20;101197.84;3189166;30;130755;-75
2021/08/19 07:08:10;;;;;;;2.65;1.35;;;18.80;73.40;;;22.58;56.98;101191.69;3187475;38;130760;-75
2021/08/19 07:11:19;;;;;;;0.77;0.77;;;18.80;73.40;;;22.45;57.56;101193.06;3188660;38;130622;-75
2021/08/19 07:14:24;;;;;;;3.22;2.70;;;18.90;73.40;;;22.43;57.65;101195.41;3188607;38;130299;-75
2021/08/19 07:17:31;;;;;;;1.08;0.95;;;18.90;73.40;;;22.38;57.72;101195.72;3187825;38;131334;-74
2021/08/19 07:20:38;;;;;;;1.10;1.05;;;18.80;73.50;;;22.23;58.30;101193.91;3189622;30;130028;-74
2021/08/19 07:23:45;;;;;;;1.50;0.98;;;18.80;73.60;;;22.15;58.33;101198.84;3186967;38;130728;-75
2021/08/19 07:26:56;;;;;;;0.45;0.45;;;18.70;73.70;;;22.08;58.77;101196.03;3189106;38;131021;-75
2021/08/19 07:30:02;;;;;;;3.85;1.63;;;18.60;73.80;;;22.23;58.47;101202.09;3188630;38;131000;-75
2021/08/19 07:33:12;;;;;;;2.55;2.05;;;18.70;73.90;;;22.31;58.28;101201.03;3187794;38;132538;-75
2021/08/19 07:36:21;;;;;;;1.58;0.93;;;18.70;73.80;;;22.14;58.46;101197.28;3189224;38;129898;-74
2021/08/19 07:39:27;;;;;;;10.75;3.28;;;18.80;74.00;;;22.35;58.31;101201.09;3187642;38;129884;-74
2021/08/19 07:42:35;;;;;;;1.48;1.33;;;18.80;74.00;;;22.69;57.43;101206.28;3190012;30;130767;-75
2021/08/19 07:45:41;;;;;;;2.55;1.02;;;18.90;73.80;;;22.74;57.68;101202.41;3189748;38;129831;-75
2021/08/19 07:48:47;;;;;;;2.05;1.40;;;19.10;73.60;;;22.93;57.43;101200.31;3186351;38;129846;-75
2021/08/19 07:51:53;;;;;;;0.40;0.40;;;19.20;73.50;;;23.15;56.79;101202.16;3187693;38;131780;-75
2021/08/19 07:55:00;;;;;;;0.20;0.20;;;19.30;73.30;;;23.48;56.25;101209.53;3189180;38;131589;-75
2021/08/19 07:58:10;;;;;;;1.02;0.93;;;19.50;73.10;;;23.91;55.31;101208.75;3185994;30;130505;-75
2021/08/19 08:01:16;;;;;;;1.40;0.98;;;19.80;72.80;;;24.03;55.55;101201.03;3187417;38;130709;-75
2021/08/19 08:04:22;;;;;;;2.15;1.20;;;20.00;72.70;;;24.23;55.40;101207.84;3188175;30;131308;-75
2021/08/19 08:07:30;;;;;;;3.55;1.65;;;20.20;72.70;;;24.30;55.57;101216.09;3189655;30;130880;-75
2021/08/19 08:10:38;;;;;;;4.07;2.17;;;20.30;72.50;;;24.18;56.24;101211.72;3184021;38;131741;-75
2021/08/19 08:13:47;;;;;;;0.43;0.43;;;20.40;72.50;;;24.22;56.23;101219.97;3186053;30;130758;-75
2021/08/19 08:16:53;;;;;;;8.10;1.55;;;20.40;72.50;;;24.00;57.08;101229.19;3185368;38;130008;-75
2021/08/19 08:19:59;;;;;;;0.82;0.82;;;20.40;72.60;;;23.92;57.32;101218.53;3186350;38;129767;-75
2021/08/19 08:23:06;;;;;;;3.85;1.52;;;20.30;72.80;;;23.81;57.52;101226.66;3185857;38;130523;-75
2021/08/19 08:26:14;;;;;;;6.65;1.88;;;20.30;72.90;;;23.58;57.83;101231.53;3186686;38;130247;-75
2021/08/19 08:29:25;;;;;;;4.72;1.33;;;20.20;73.10;;;23.45;58.31;101232.19;3186706;38;130751;-74
2021/08/19 08:32:31;;;;;;;1.45;0.70;;;20.10;73.20;;;23.42;58.42;101227.44;3187135;38;131312;-75
2021/08/19 08:35:37;;;;;;;1.20;0.63;;;20.00;73.30;;;23.38;58.59;101229.34;3189584;30;129977;-73
2021/08/19 08:38:44;;;;;;;0.52;0.52;;;20.00;73.40;;;23.44;58.35;101234.13;3191133;30;129856;-75
2021/08/19 08:41:50;;;;;;;1.67;1.33;;;20.00;73.50;;;23.65;57.73;101233.53;3190087;38;130848;-75
2021/08/19 08:45:00;;;;;;;1.25;1.13;;;20.00;73.40;;;23.65;57.79;101233.53;3187808;38;130962;-76
2021/08/19 08:48:16;;;;;;;1.00;0.95;;;20.10;73.40;;;23.61;58.03;101241.72;3186315;38;130381;-75
2021/08/19 08:51:25;;;;;;;1.23;0.47;;;20.10;73.60;;;23.53;58.30;101236.56;3185965;30;130640;-74
2021/08/19 08:54:32;;;;;;;3.13;1.65;;;20.00;73.60;;;23.56;58.08;101238.53;3185818;38;130340;-74
2021/08/19 08:57:39;;;;;;;3.78;1.02;;;20.00;73.60;;;23.45;58.41;101246.63;3186670;30;131572;-74
2021/08/19 09:00:50;;;;;;;5.38;1.23;;;20.00;73.70;;;23.29;58.80;101246.09;3187694;30;130656;-74
2021/08/19 09:03:57;;;;;;;0.52;0.52;;;19.90;73.70;;;23.26;59.00;101251.50;3186210;38;133210;-74
2021/08/19 09:07:08;;;;;;;0.65;0.65;;;19.90;73.80;;;23.23;58.74;101249.50;3187844;30;129964;-74
2021/08/19 09:10:16;;;;;;;3.17;1.65;;;19.80;73.90;;;23.22;58.79;101242.47;3187222;38;133176;-75
2021/08/19 09:13:26;;;;;;;1.45;0.73;;;19.80;74.00;;;23.30;58.77;101246.84;3187342;30;131210;-75
2021/08/19 09:16:46;;;;;;;0.65;0.45;;;19.80;74.00;;;23.30;58.73;101247.66;3186670;30;130677;-74
2021/08/19 09:19:53;;;;;;;1.55;1.38;;;19.80;74.00;;;23.31;58.41;101253.91;3187475;38;131463;-75
2021/08/19 09:23:03;;;;;;;2.53;2.28;;;19.70;74.00;;;23.27;58.55;101242.94;3187116;30;130749;-75
2021/08/19 09:26:09;;;;;;;1.02;0.68;;;19.70;73.90;;;23.26;58.53;101248.75;3187808;38;130034;-75
2021/08/19 09:29:28;;;;;;;1.00;0.75;;;19.80;74.00;;;23.21;58.72;101252.59;3186320;38;130893;-75
2021/08/19 09:32:36;;;;;;;7.70;2.40;;;19.70;74.00;;;23.13;58.83;101252.94;3187606;30;130262;-74
2021/08/19 09:35:44;;;;;;;0.80;0.80;;;19.70;74.10;;;23.19;58.83;101254.16;3186317;38;131646;-74
2021/08/19 09:38:50;;;;;;;1.67;1.25;;;19.70;74.10;;;23.49;58.17;101246.69;3189146;30;130345;-70
2021/08/19 09:41:57;;;;;;;1.25;1.00;;;19.70;74.00;;;23.88;57.19;101253.31;3188132;38;129945;-70
2021/08/19 09:45:19;;;;;;;1.67;0.60;;;19.90;73.90;;;24.15;56.65;101250.00;3185409;38;130730;-70
2021/08/19 09:48:34;;;;;;;0.57;0.57;;;20.10;73.60;;;24.21;56.55;101248.50;3188285;38;131132;-70
2021/08/19 09:51:39;;;;;;;;;;;20.20;73.30;;;24.19;56.88;101254.38;3186643;38;131396;-71
2021/08/19 09:54:45;;;;;;;0.55;0.52;;;20.30;73.40;;;24.18;57.16;101254.75;3187244;30;131465;-72
2021/08/19 09:57:51;;;;;;;0.63;0.63;;;20.40;73.30;;;24.04;57.41;101249.97;3186771;30;130771;-72
2021/08/19 10:00:58;;;;;;;0.93;0.52;;;20.40;73.40;;;23.90;57.92;101254.53;3188067;30;130788;-73
2021/08/19 10:04:09;;;;;;;3.90;1.33;;;20.30;73.50;;;23.73;58.47;101248.88;3186740;38;131278;-73
2021/08/19 10:07:15;;;;;;;9.52;2.47;;;20.20;73.50;;;23.60;58.48;101250.28;3187293;38;129865;-74
2021/08/19 10:10:21;;;;;;;2.40;1.02;;;20.20;73.70;;;23.38;58.66;101256.69;3184609;38;130091;-73
2021/08/19 10:13:27;;;;;;;6.80;1.67;;;20.00;73.80;;;23.23;58.92;101258.50;3188675;30;130775;-73
2021/08/19 10:16:37;;;;;;;3.83;1.27;;;19.90;74.00;;;23.11;59.30;101255.22;3186101;38;130416;-73
2021/08/19 10:19:46;;;;;;;0.55;0.55;;;19.70;74.10;;;22.98;59.37;101262.88;3187244;38;134476;-73
2021/08/19 10:22:54;;;;;;;6.75;1.85;;;19.70;74.30;;;23.07;59.19;101254.38;3186522;38;131296;-73
2021/08/19 10:26:11;;;;;;;0.60;0.60;;;19.70;74.50;;;23.16;59.11;101257.66;3186385;38;129741;-72
2021/08/19 10:29:16;;;;;;;0.52;0.52;;;19.70;74.90;;;23.23;58.96;101263.19;3187689;38;130688;-72
2021/08/19 10:32:34;;;;;;;0.95;0.95;;;19.70;74.20;;;23.29;58.79;101261.69;3189894;38;130809;-72
2021/08/19 10:35:43;;;;;;;6.05;1.20;;;19.80;74.20;;;23.25;58.90;101260.88;3189297;30;130809;-72
2021/08/19 10:38:49;;;;;;;1.60;1.08;;;19.80;74.10;;;23.25;58.75;101255.41;3188440;38;132312;-72
2021/08/19 10:41:57;;;;;;;1.05;0.95;;;19.70;74.10;;;23.32;58.79;101255.47;3189101;38;132443;-71
2021/08/19 10:45:43;;;;;;;0.68;0.32;;;19.70;74.20;;;23.33;58.53;101257.03;3189940;38;130604;-72
2021/08/19 10:48:53;;;;;;;1.38;0.88;;;19.80;74.30;;;23.39;58.37;101258.28;3196192;38;131558;-72
2021/08/19 10:52:32;;;;;;;1.17;0.75;;;19.80;74.20;;;23.54;58.03;101255.31;3188587;30;129841;-73
2021/08/19 10:55:44;;;;;;;1.38;1.25;;;19.80;74.10;;;23.50;58.24;101257.22;3183539;38;130312;-73
2021/08/19 10:58:50;;;;;;;2.88;1.50;;;19.80;74.10;;;23.33;58.76;101251.56;3187721;38;130732;-72
2021/08/19 11:01:56;;;;;;;3.00;1.98;;;19.80;74.10;;;23.30;58.77;101252.31;3188485;30;131229;-72
2021/08/19 11:05:10;;;;;;;4.07;1.33;;;19.80;74.10;;;23.21;58.87;101260.81;3186176;30;130797;-72
2021/08/19 11:08:44;;;;;;;2.58;1.70;;;19.80;74.20;;;23.07;59.24;101251.63;3186422;38;131275;-72
2021/08/19 11:11:56;;;;;;;4.18;1.98;;;19.70;74.30;;;23.07;59.04;101260.63;3186848;30;131513;-71
2021/08/19 11:15:02;;;;;;;1.40;1.30;;;19.60;74.30;;;23.07;58.82;101255.16;3185486;38;133499;-73
2021/08/19 11:18:09;;;;;;;6.15;2.40;;;19.60;74.40;;;23.04;58.74;101260.56;3187805;30;130233;-73
2021/08/19 11:21:15;;;;;;;22.85;1.75;;;19.60;74.30;;;23.04;58.93;101255.91;3185119;38;130427;-72
2021/08/19 11:24:25;;;;;;;1.45;1.35;;;19.60;74.30;;;23.04;58.67;101255.09;3186417;38;130812;-71
2021/08/19 11:27:31;;;;;;;0.68;0.68;;;19.60;74.20;;;23.18;58.80;101261.56;3185824;30;134673;-73
2021/08/19 11:30:40;;;;;;;1.38;1.27;;;19.60;74.20;;;23.35;58.18;101265.66;3187193;30;131343;-73
2021/08/19 11:33:48;;;;;;;4.68;1.55;;;19.70;74.20;;;23.40;58.05;101265.31;3185463;38;131826;-72
2021/08/19 11:36:55;;;;;;;1.80;1.00;;;19.70;74.10;;;23.43;58.29;101261.84;3187273;38;130746;-72
2021/08/19 11:40:07;;;;;;;1.83;0.85;;;19.80;74.10;;;23.48;58.02;101269.72;3187004;38;131439;-72
2021/08/19 11:43:28;;;;;;;1.38;0.80;;;19.80;74.00;;;23.56;57.94;101279.56;3185559;38;131805;-72
2021/08/19 11:46:35;;;;;;;1.25;1.15;;;19.80;74.00;;;23.60;57.73;101272.97;3184708;30;131172;-71
2021/08/19 11:49:42;;;;;;;1.90;1.23;;;19.80;74.00;;;23.55;57.94;101270.56;3185058;38;131075;-71
2021/08/19 11:52:49;;;;;;;4.20;0.90;;;19.90;74.10;;;23.71;57.58;101275.78;3186432;38;131492;-71
2021/08/19 11:56:12;;;;;;;6.07;1.45;;;19.90;74.10;;;23.86;57.44;101277.56;3183433;30;132036;-71
2021/08/19 11:59:21;;;;;;;16.40;2.72;;;19.90;73.90;;;24.04;57.10;101277.34;3186682;38;131371;-70
2021/08/19 12:02:27;;;;;;;0.73;0.73;;;20.00;73.80;;;24.03;57.15;101281.25;3186621;38;130784;-71
2021/08/19 12:05:32;;;;;;;1.38;1.15;;;20.10;73.90;;;23.89;57.75;101282.28;3185920;38;130501;-70
2021/08/19 12:08:45;;;;;;;0.80;0.80;;;20.10;73.80;;;23.98;57.62;101289.00;3185754;38;131431;-70
2021/08/19 12:11:54;;;;;;;1.90;0.75;;;20.20;73.80;;;23.95;57.79;101292.50;3186966;38;130655;-71
2021/08/19 12:15:00;;;;;;;2.75;1.05;;;20.30;73.80;;;24.12;57.25;101289.91;3186647;38;132175;-71
2021/08/19 12:18:12;;;;;;;0.98;0.82;;;20.30;73.60;;;24.27;56.96;101296.28;3185322;38;130088;-72
2021/08/19 12:21:21;;;;;;;1.25;1.15;;;20.50;73.50;;;24.41;56.68;101294.44;3185700;38;131934;-73
2021/08/19 12:24:33;;;;;;;2.83;2.53;;;20.50;73.40;;;24.42;56.74;101293.28;3188264;38;130615;-74
2021/08/19 12:27:42;;;;;;;4.90;1.05;;;20.50;73.30;;;24.29;57.42;101289.25;3188925;38;130751;-73
2021/08/19 12:30:59;;;;;;;1.38;0.95;;;20.60;73.30;;;24.49;56.75;101296.06;3186698;38;129918;-74
2021/08/19 12:34:07;;;;;;;1.35;0.93;;;20.60;73.40;;;24.59;56.64;101294.59;3186758;30;130197;-73
2021/08/19 12:37:13;;;;;;;1.20;0.70;;;20.70;73.30;;;24.38;57.22;101300.69;3186680;30;132655;-74
2021/08/19 12:40:20;;;;;;;7.82;1.55;;;20.70;73.30;;;24.25;57.81;101310.34;3186777;38;130848;-74
2021/08/19 12:43:28;;;;;;;13.07;1.38;;;20.60;73.50;;;24.32;57.71;101313.19;3185776;38;131775;-73
2021/08/19 12:46:40;;;;;;;3.58;1.10;;;20.70;73.60;;;24.10;58.05;101311.41;3187096;38;130684;-74
2021/08/19 12:49:45;;;;;;;7.40;1.02;;;20.60;73.60;;;23.98;58.55;101305.44;3186517;38;130642;-74
2021/08/19 12:52:52;;;;;;;1.40;1.02;;;20.50;73.80;;;24.16;57.94;101301.69;3187595;38;130798;-74